sensor_id;sensor_type;location;lat;lon;timestamp;pressure;altitude;pressure_sealevel;temperature;humidity
4617;BME280;2321;42.704;23.384;2024-03-08T00:01:01;95500.53;;;6.49;100.00
4617;BME280;2321;42.704;23.384;2024-03-08T00:03:28;95501.38;;;6.49;100.00
4617;BME280;2321;42.704;23.384;2024-03-08T00:05:56;95506.66;;;6.49;100.00
4617;BME280;2321;42.704;23.384;2024-03-08T00:08:25;95498.06;;;6.56;100.00
4617;BME280;2321;42.704;23.384;2024-03-08T00:10:53;95501.03;;;6.61;100.00
4617;BME280;2321;42.704;23.384;2024-03-08T00:13:20;95498.56;;;6.68;100.00
4617;BME280;2321;42.704;23.384;2024-03-08T00:15:47;95500.72;;;6.64;100.00
4617;BME280;2321;42.704;23.384;2024-03-08T00:18:14;95496.06;;;6.66;100.00
4617;BME280;2321;42.704;23.384;2024-03-08T00:20:42;95490.78;;;6.58;100.00
4617;BME280;2321;42.704;23.384;2024-03-08T00:23:09;95497.88;;;6.65;100.00
4617;BME280;2321;42.704;23.384;2024-03-08T00:25:38;95496.44;;;6.71;100.00
4617;BME280;2321;42.704;23.384;2024-03-08T00:28:06;95494.59;;;6.72;100.00
4617;BME280;2321;42.704;23.384;2024-03-08T00:30:33;95488.97;;;6.75;100.00
4617;BME280;2321;42.704;23.384;2024-03-08T00:33:00;95489.16;;;6.73;100.00
4617;BME280;2321;42.704;23.384;2024-03-08T00:35:27;95487.66;;;6.79;100.00
4617;BME280;2321;42.704;23.384;2024-03-08T00:37:54;95493.59;;;6.73;100.00
4617;BME280;2321;42.704;23.384;2024-03-08T00:40:22;95485.00;;;6.54;100.00
4617;BME280;2321;42.704;23.384;2024-03-08T00:42:50;95490.28;;;6.46;100.00
4617;BME280;2321;42.704;23.384;2024-03-08T00:45:18;95485.97;;;6.45;100.00
4617;BME280;2321;42.704;23.384;2024-03-08T00:47:45;95487.13;;;6.42;100.00
4617;BME280;2321;42.704;23.384;2024-03-08T00:50:12;95484.00;;;6.38;100.00
4617;BME280;2321;42.704;23.384;2024-03-08T00:52:40;95479.34;;;6.32;100.00
4617;BME280;2321;42.704;23.384;2024-03-08T00:55:07;95476.38;;;6.27;100.00
4617;BME280;2321;42.704;23.384;2024-03-08T00:57:36;95480.00;;;6.17;100.00
4617;BME280;2321;42.704;23.384;2024-03-08T01:00:07;95469.91;;;6.13;100.00
4617;BME280;2321;42.704;23.384;2024-03-08T01:02:37;95469.53;;;6.07;100.00
4617;BME280;2321;42.704;23.384;2024-03-08T01:05:05;95460.94;;;6.05;100.00
4617;BME280;2321;42.704;23.384;2024-03-08T01:07:33;95463.91;;;6.02;100.00
4617;BME280;2321;42.704;23.384;2024-03-08T01:10:00;95469.69;;;5.97;100.00
4617;BME280;2321;42.704;23.384;2024-03-08T01:12:27;95455.31;;;5.92;100.00
4617;BME280;2321;42.704;23.384;2024-03-08T01:14:55;95456.09;;;5.84;100.00
4617;BME280;2321;42.704;23.384;2024-03-08T01:17:24;95447.84;;;5.78;100.00
4617;BME280;2321;42.704;23.384;2024-03-08T01:19:52;95449.66;;;5.78;100.00
4617;BME280;2321;42.704;23.384;2024-03-08T01:22:20;95449.13;;;5.74;100.00
4617;BME280;2321;42.704;23.384;2024-03-08T01:24:48;95446.50;;;5.74;100.00
4617;BME280;2321;42.704;23.384;2024-03-08T01:27:15;95445.84;;;5.72;100.00
4617;BME280;2321;42.704;23.384;2024-03-08T01:29:42;95447.81;;;5.70;100.00
4617;BME280;2321;42.704;23.384;2024-03-08T01:32:09;95442.03;;;5.66;100.00
4617;BME280;2321;42.704;23.384;2024-03-08T01:34:39;95433.44;;;5.73;100.00
4617;BME280;2321;42.704;23.384;2024-03-08T01:37:06;95434.31;;;5.82;100.00
4617;BME280;2321;42.704;23.384;2024-03-08T01:39:33;95432.66;;;5.89;100.00
4617;BME280;2321;42.704;23.384;2024-03-08T01:42:00;95439.09;;;5.86;100.00
4617;BME280;2321;42.704;23.384;2024-03-08T01:44:27;95440.25;;;5.84;100.00
4617;BME280;2321;42.704;23.384;2024-03-08T01:46:55;95437.47;;;5.85;100.00
4617;BME280;2321;42.704;23.384;2024-03-08T01:49:24;95437.81;;;5.99;100.00
4617;BME280;2321;42.704;23.384;2024-03-08T01:51:54;95430.88;;;6.06;100.00
4617;BME280;2321;42.704;23.384;2024-03-08T01:54:23;95427.28;;;6.16;100.00
4617;BME280;2321;42.704;23.384;2024-03-08T01:56:51;95430.25;;;6.21;100.00
4617;BME280;2321;42.704;23.384;2024-03-08T01:59:19;95426.13;;;6.18;100.00
4617;BME280;2321;42.704;23.384;2024-03-08T02:01:46;95424.81;;;6.23;100.00
4617;BME280;2321;42.704;23.384;2024-03-08T02:04:13;95429.44;;;6.29;100.00
4617;BME280;2321;42.704;23.384;2024-03-08T02:06:40;95427.47;;;6.31;100.00
4617;BME280;2321;42.704;23.384;2024-03-08T02:09:09;95418.53;;;6.32;100.00
4617;BME280;2321;42.704;23.384;2024-03-08T02:11:36;95421.03;;;6.34;100.00
4617;BME280;2321;42.704;23.384;2024-03-08T02:14:03;95427.13;;;6.26;100.00
4617;BME280;2321;42.704;23.384;2024-03-08T02:16:31;95426.97;;;6.19;100.00
4617;BME280;2321;42.704;23.384;2024-03-08T02:18:59;95435.22;;;6.16;100.00
4617;BME280;2321;42.704;23.384;2024-03-08T02:21:28;95428.59;;;6.12;100.00
4617;BME280;2321;42.704;23.384;2024-03-08T02:23:56;95430.09;;;6.14;100.00
4617;BME280;2321;42.704;23.384;2024-03-08T02:26:23;95436.53;;;6.12;100.00
4617;BME280;2321;42.704;23.384;2024-03-08T02:28:50;95442.75;;;6.02;100.00
4617;BME280;2321;42.704;23.384;2024-03-08T02:31:17;95445.53;;;5.92;100.00
4617;BME280;2321;42.704;23.384;2024-03-08T02:33:44;95435.28;;;5.89;100.00
4617;BME280;2321;42.704;23.384;2024-03-08T02:36:13;95439.59;;;5.90;100.00
4617;BME280;2321;42.704;23.384;2024-03-08T02:38:41;95453.31;;;5.94;100.00
4617;BME280;2321;42.704;23.384;2024-03-08T02:41:08;95453.66;;;5.91;100.00
4617;BME280;2321;42.704;23.384;2024-03-08T02:43:35;95453.44;;;5.84;100.00
4617;BME280;2321;42.704;23.384;2024-03-08T02:46:03;95443.53;;;5.77;100.00
4617;BME280;2321;42.704;23.384;2024-03-08T02:48:30;95448.28;;;5.74;100.00
4617;BME280;2321;42.704;23.384;2024-03-08T02:50:57;95455.88;;;5.69;100.00
4617;BME280;2321;42.704;23.384;2024-03-08T02:53:25;95447.94;;;5.60;100.00
4617;BME280;2321;42.704;23.384;2024-03-08T02:55:54;95449.56;;;5.53;100.00
4617;BME280;2321;42.704;23.384;2024-03-08T02:58:22;95443.72;;;5.41;100.00
4617;BME280;2321;42.704;23.384;2024-03-08T03:00:49;95443.91;;;5.39;100.00
4617;BME280;2321;42.704;23.384;2024-03-08T03:03:16;95441.19;;;5.31;100.00
4617;BME280;2321;42.704;23.384;2024-03-08T03:05:43;95439.56;;;5.30;100.00
4617;BME280;2321;42.704;23.384;2024-03-08T03:08:10;95444.47;;;5.25;100.00
4617;BME280;2321;42.704;23.384;2024-03-08T03:10:38;95445.00;;;5.28;100.00
4617;BME280;2321;42.704;23.384;2024-03-08T03:13:08;95452.59;;;5.31;100.00
4617;BME280;2321;42.704;23.384;2024-03-08T03:15:35;95454.06;;;5.26;100.00
4617;BME280;2321;42.704;23.384;2024-03-08T03:18:02;95454.22;;;5.24;100.00
4617;BME280;2321;42.704;23.384;2024-03-08T03:20:31;95449.44;;;5.28;100.00
4617;BME280;2321;42.704;23.384;2024-03-08T03:23:03;95451.75;;;5.31;100.00
4617;BME280;2321;42.704;23.384;2024-03-08T03:25:30;95466.31;;;5.35;100.00
4617;BME280;2321;42.704;23.384;2024-03-08T03:28:00;95464.34;;;5.37;100.00
4617;BME280;2321;42.704;23.384;2024-03-08T03:30:29;95461.69;;;5.37;100.00
4617;BME280;2321;42.704;23.384;2024-03-08T03:32:59;95468.00;;;5.44;100.00
4617;BME280;2321;42.704;23.384;2024-03-08T03:35:28;95469.50;;;5.47;100.00
4617;BME280;2321;42.704;23.384;2024-03-08T03:37:55;95469.00;;;5.43;100.00
4617;BME280;2321;42.704;23.384;2024-03-08T03:40:33;95476.06;;;5.43;100.00
4617;BME280;2321;42.704;23.384;2024-03-08T03:43:00;95472.97;;;5.48;100.00
4617;BME280;2321;42.704;23.384;2024-03-08T03:45:30;95480.63;;;5.59;100.00
4617;BME280;2321;42.704;23.384;2024-03-08T03:48:01;95479.00;;;5.66;100.00
4617;BME280;2321;42.704;23.384;2024-03-08T03:50:28;95483.91;;;5.61;100.00
4617;BME280;2321;42.704;23.384;2024-03-08T03:52:55;95477.97;;;5.59;100.00
4617;BME280;2321;42.704;23.384;2024-03-08T03:55:22;95487.25;;;5.63;100.00
4617;BME280;2321;42.704;23.384;2024-03-08T03:57:49;95491.53;;;5.64;100.00
4617;BME280;2321;42.704;23.384;2024-03-08T04:00:18;95491.84;;;5.61;100.00
4617;BME280;2321;42.704;23.384;2024-03-08T04:02:46;95497.63;;;5.65;100.00
4617;BME280;2321;42.704;23.384;2024-03-08T04:05:14;95496.16;;;5.62;100.00
4617;BME280;2321;42.704;23.384;2024-03-08T04:07:41;95489.84;;;5.55;100.00
4617;BME280;2321;42.704;23.384;2024-03-08T04:10:10;95497.25;;;5.51;100.00
4617;BME280;2321;42.704;23.384;2024-03-08T04:12:38;95502.88;;;5.48;100.00
4617;BME280;2321;42.704;23.384;2024-03-08T04:15:05;95505.50;;;5.48;100.00
4617;BME280;2321;42.704;23.384;2024-03-08T04:17:33;95475.84;;;5.28;100.00
4617;BME280;2321;42.704;23.384;2024-03-08T04:20:05;95509.75;;;5.41;100.00
4617;BME280;2321;42.704;23.384;2024-03-08T04:22:35;95509.09;;;5.39;100.00
4617;BME280;2321;42.704;23.384;2024-03-08T04:25:02;95515.03;;;5.41;100.00
4617;BME280;2321;42.704;23.384;2024-03-08T04:27:29;95508.47;;;5.45;100.00
4617;BME280;2321;42.704;23.384;2024-03-08T04:29:58;95515.91;;;5.50;100.00
4617;BME280;2321;42.704;23.384;2024-03-08T04:32:25;95500.50;;;5.37;100.00
4617;BME280;2321;42.704;23.384;2024-03-08T04:34:53;95519.53;;;5.49;100.00
4617;BME280;2321;42.704;23.384;2024-03-08T04:37:22;95528.97;;;5.51;100.00
4617;BME280;2321;42.704;23.384;2024-03-08T04:39:49;95522.53;;;5.54;100.00
4617;BME280;2321;42.704;23.384;2024-03-08T04:42:16;95534.06;;;5.53;100.00
4617;BME280;2321;42.704;23.384;2024-03-08T04:44:43;95537.72;;;5.52;100.00
4617;BME280;2321;42.704;23.384;2024-03-08T04:47:11;95539.22;;;5.54;100.00
4617;BME280;2321;42.704;23.384;2024-03-08T04:49:38;95536.25;;;5.58;100.00
4617;BME280;2321;42.704;23.384;2024-03-08T04:52:05;95528.81;;;5.61;100.00
4617;BME280;2321;42.704;23.384;2024-03-08T04:54:34;95535.94;;;5.61;100.00
4617;BME280;2321;42.704;23.384;2024-03-08T04:57:01;95527.69;;;5.64;100.00
4617;BME280;2321;42.704;23.384;2024-03-08T04:59:30;95541.91;;;5.71;100.00
4617;BME280;2321;42.704;23.384;2024-03-08T05:01:57;95538.00;;;5.75;100.00
4617;BME280;2321;42.704;23.384;2024-03-08T05:04:24;95540.50;;;5.85;100.00
4617;BME280;2321;42.704;23.384;2024-03-08T05:06:51;95546.28;;;5.89;100.00
4617;BME280;2321;42.704;23.384;2024-03-08T05:09:19;95551.88;;;5.86;100.00
4617;BME280;2321;42.704;23.384;2024-03-08T05:11:47;95551.09;;;5.85;100.00
4617;BME280;2321;42.704;23.384;2024-03-08T05:14:15;95553.75;;;5.94;100.00
4617;BME280;2321;42.704;23.384;2024-03-08T05:16:45;95560.38;;;5.98;100.00
4617;BME280;2321;42.704;23.384;2024-03-08T05:19:14;95556.84;;;5.89;100.00
4617;BME280;2321;42.704;23.384;2024-03-08T05:21:43;95564.13;;;5.87;100.00
4617;BME280;2321;42.704;23.384;2024-03-08T05:24:10;95559.19;;;5.92;100.00
4617;BME280;2321;42.704;23.384;2024-03-08T05:26:38;95569.09;;;5.90;100.00
4617;BME280;2321;42.704;23.384;2024-03-08T05:29:07;95563.59;;;5.83;100.00
4617;BME280;2321;42.704;23.384;2024-03-08T05:31:41;95576.47;;;5.78;100.00
4617;BME280;2321;42.704;23.384;2024-03-08T05:34:09;95584.22;;;5.80;100.00
4617;BME280;2321;42.704;23.384;2024-03-08T05:36:36;95577.31;;;5.78;100.00
4617;BME280;2321;42.704;23.384;2024-03-08T05:39:03;95593.50;;;5.84;100.00
4617;BME280;2321;42.704;23.384;2024-03-08T05:41:32;95596.00;;;5.85;100.00
4617;BME280;2321;42.704;23.384;2024-03-08T05:43:59;95595.69;;;5.88;100.00
4617;BME280;2321;42.704;23.384;2024-03-08T05:46:27;95603.31;;;5.92;100.00
4617;BME280;2321;42.704;23.384;2024-03-08T05:48:54;95608.28;;;5.95;100.00
4617;BME280;2321;42.704;23.384;2024-03-08T05:51:23;95611.09;;;6.02;100.00
4617;BME280;2321;42.704;23.384;2024-03-08T05:53:51;95612.72;;;5.94;100.00
4617;BME280;2321;42.704;23.384;2024-03-08T05:56:19;95614.19;;;5.88;100.00
4617;BME280;2321;42.704;23.384;2024-03-08T05:58:46;95623.41;;;5.84;100.00
4617;BME280;2321;42.704;23.384;2024-03-08T06:01:15;95621.88;;;5.73;100.00
4617;BME280;2321;42.704;23.384;2024-03-08T06:03:44;95619.69;;;5.69;100.00
4617;BME280;2321;42.704;23.384;2024-03-08T06:06:13;95622.19;;;5.70;100.00
4617;BME280;2321;42.704;23.384;2024-03-08T06:08:41;95629.09;;;5.71;100.00
4617;BME280;2321;42.704;23.384;2024-03-08T06:11:08;95630.47;;;5.75;100.00
4617;BME280;2321;42.704;23.384;2024-03-08T06:13:36;95631.66;;;5.81;100.00
4617;BME280;2321;42.704;23.384;2024-03-08T06:16:04;95631.69;;;5.89;100.00
4617;BME280;2321;42.704;23.384;2024-03-08T06:18:33;95638.94;;;5.87;100.00
4617;BME280;2321;42.704;23.384;2024-03-08T06:21:04;95638.13;;;5.87;100.00
4617;BME280;2321;42.704;23.384;2024-03-08T06:23:31;95640.31;;;5.92;100.00
4617;BME280;2321;42.704;23.384;2024-03-08T06:25:59;95636.81;;;5.91;100.00
4617;BME280;2321;42.704;23.384;2024-03-08T06:28:26;95638.94;;;5.87;100.00
4617;BME280;2321;42.704;23.384;2024-03-08T06:30:53;95642.56;;;5.86;100.00
4617;BME280;2321;42.704;23.384;2024-03-08T06:33:20;95645.91;;;5.88;100.00
4617;BME280;2321;42.704;23.384;2024-03-08T06:35:47;95637.59;;;5.83;100.00
4617;BME280;2321;42.704;23.384;2024-03-08T06:38:16;95644.56;;;5.84;100.00
4617;BME280;2321;42.704;23.384;2024-03-08T06:40:44;95638.91;;;5.79;100.00
4617;BME280;2321;42.704;23.384;2024-03-08T06:43:13;95644.84;;;5.81;100.00
4617;BME280;2321;42.704;23.384;2024-03-08T06:45:41;95652.94;;;5.80;100.00
4617;BME280;2321;42.704;23.384;2024-03-08T06:48:14;95642.34;;;5.80;100.00
4617;BME280;2321;42.704;23.384;2024-03-08T06:50:42;95652.31;;;5.86;100.00
4617;BME280;2321;42.704;23.384;2024-03-08T06:53:10;95646.03;;;5.87;100.00
4617;BME280;2321;42.704;23.384;2024-03-08T06:55:39;95653.66;;;5.90;100.00
4617;BME280;2321;42.704;23.384;2024-03-08T06:58:06;95653.03;;;5.96;100.00
4617;BME280;2321;42.704;23.384;2024-03-08T07:00:33;95656.03;;;6.02;100.00
4617;BME280;2321;42.704;23.384;2024-03-08T07:03:01;95654.47;;;6.09;100.00
4617;BME280;2321;42.704;23.384;2024-03-08T07:05:29;95654.66;;;6.16;100.00
4617;BME280;2321;42.704;23.384;2024-03-08T07:07:56;95658.63;;;6.20;100.00
4617;BME280;2321;42.704;23.384;2024-03-08T07:10:24;95663.28;;;6.26;100.00
4617;BME280;2321;42.704;23.384;2024-03-08T07:12:52;95664.94;;;6.19;100.00
4617;BME280;2321;42.704;23.384;2024-03-08T07:15:20;95668.50;;;6.09;100.00
4617;BME280;2321;42.704;23.384;2024-03-08T07:17:49;95670.25;;;6.01;100.00
4617;BME280;2321;42.704;23.384;2024-03-08T07:20:18;95658.84;;;6.00;100.00
4617;BME280;2321;42.704;23.384;2024-03-08T07:22:45;95666.16;;;6.06;100.00
4617;BME280;2321;42.704;23.384;2024-03-08T07:25:16;95666.00;;;6.08;100.00
4617;BME280;2321;42.704;23.384;2024-03-08T07:27:47;95672.06;;;6.00;100.00
4617;BME280;2321;42.704;23.384;2024-03-08T07:30:16;95669.22;;;5.93;100.00
4617;BME280;2321;42.704;23.384;2024-03-08T07:33:04;95676.91;;;5.86;100.00
4617;BME280;2321;42.704;23.384;2024-03-08T07:35:32;95669.69;;;5.88;100.00
4617;BME280;2321;42.704;23.384;2024-03-08T07:38:03;95677.09;;;5.85;100.00
4617;BME280;2321;42.704;23.384;2024-03-08T07:40:31;95669.63;;;5.80;100.00
4617;BME280;2321;42.704;23.384;2024-03-08T07:42:58;95672.25;;;5.80;100.00
4617;BME280;2321;42.704;23.384;2024-03-08T07:45:27;95673.63;;;5.84;100.00
4617;BME280;2321;42.704;23.384;2024-03-08T07:47:54;95675.28;;;5.85;100.00
4617;BME280;2321;42.704;23.384;2024-03-08T07:50:21;95671.94;;;5.83;100.00
4617;BME280;2321;42.704;23.384;2024-03-08T07:52:48;95676.88;;;5.78;100.00
4617;BME280;2321;42.704;23.384;2024-03-08T07:55:15;95670.00;;;5.85;100.00
4617;BME280;2321;42.704;23.384;2024-03-08T07:57:42;95659.75;;;5.82;100.00
4617;BME280;2321;42.704;23.384;2024-03-08T08:00:10;95669.06;;;5.95;100.00
4617;BME280;2321;42.704;23.384;2024-03-08T08:02:44;95674.34;;;5.95;100.00
4617;BME280;2321;42.704;23.384;2024-03-08T08:05:12;95663.78;;;5.95;100.00
4617;BME280;2321;42.704;23.384;2024-03-08T08:07:39;95664.75;;;5.94;100.00
4617;BME280;2321;42.704;23.384;2024-03-08T08:10:09;95672.38;;;5.97;100.00
4617;BME280;2321;42.704;23.384;2024-03-08T08:12:42;95667.13;;;6.05;100.00
4617;BME280;2321;42.704;23.384;2024-03-08T08:15:09;95667.97;;;6.06;100.00
4617;BME280;2321;42.704;23.384;2024-03-08T08:17:36;95675.72;;;6.07;100.00
4617;BME280;2321;42.704;23.384;2024-03-08T08:20:06;95668.78;;;6.06;100.00
4617;BME280;2321;42.704;23.384;2024-03-08T08:22:34;95669.34;;;6.10;100.00
4617;BME280;2321;42.704;23.384;2024-03-08T08:25:01;95673.84;;;6.18;100.00
4617;BME280;2321;42.704;23.384;2024-03-08T08:27:28;95659.97;;;6.24;100.00
4617;BME280;2321;42.704;23.384;2024-03-08T08:29:55;95665.81;;;6.36;100.00
4617;BME280;2321;42.704;23.384;2024-03-08T08:32:22;95672.78;;;6.37;100.00
4617;BME280;2321;42.704;23.384;2024-03-08T08:52:22;95638.69;;;7.03;100.00
4617;BME280;2321;42.704;23.384;2024-03-08T08:54:49;95658.25;;;7.27;100.00
4617;BME280;2321;42.704;23.384;2024-03-08T08:57:16;95660.41;;;7.32;100.00
4617;BME280;2321;42.704;23.384;2024-03-08T08:59:43;95669.34;;;7.30;100.00
4617;BME280;2321;42.704;23.384;2024-03-08T09:02:11;95667.72;;;7.29;100.00
4617;BME280;2321;42.704;23.384;2024-03-08T09:04:38;95666.38;;;7.34;100.00
4617;BME280;2321;42.704;23.384;2024-03-08T09:07:05;95664.41;;;7.36;100.00
4617;BME280;2321;42.704;23.384;2024-03-08T09:09:34;95660.75;;;7.28;100.00
4617;BME280;2321;42.704;23.384;2024-03-08T09:12:01;95649.66;;;7.25;100.00
4617;BME280;2321;42.704;23.384;2024-03-08T09:14:28;95650.63;;;7.24;100.00
4617;BME280;2321;42.704;23.384;2024-03-08T09:16:56;95645.84;;;7.27;100.00
4617;BME280;2321;42.704;23.384;2024-03-08T09:19:23;95651.63;;;7.31;100.00
4617;BME280;2321;42.704;23.384;2024-03-08T09:21:51;95643.84;;;7.38;100.00
4617;BME280;2321;42.704;23.384;2024-03-08T09:24:18;95655.44;;;7.37;100.00
4617;BME280;2321;42.704;23.384;2024-03-08T09:26:47;95647.50;;;7.37;100.00
4617;BME280;2321;42.704;23.384;2024-03-08T09:29:14;95650.00;;;7.38;100.00
4617;BME280;2321;42.704;23.384;2024-03-08T09:31:41;95651.63;;;7.31;100.00
4617;BME280;2321;42.704;23.384;2024-03-08T09:34:08;95653.31;;;7.32;99.65
4617;BME280;2321;42.704;23.384;2024-03-08T09:36:35;95652.63;;;7.38;100.00
4617;BME280;2321;42.704;23.384;2024-03-08T09:39:03;95640.88;;;7.49;100.00
4617;BME280;2321;42.704;23.384;2024-03-08T09:41:33;95645.00;;;7.60;100.00
4617;BME280;2321;42.704;23.384;2024-03-08T09:44:01;95650.31;;;7.69;100.00
4617;BME280;2321;42.704;23.384;2024-03-08T09:46:30;95647.81;;;7.76;98.29
4617;BME280;2321;42.704;23.384;2024-03-08T09:48:57;95646.31;;;7.81;97.06
4617;BME280;2321;42.704;23.384;2024-03-08T09:51:28;95650.09;;;7.87;97.62
4617;BME280;2321;42.704;23.384;2024-03-08T09:53:56;95646.09;;;7.91;95.20
4617;BME280;2321;42.704;23.384;2024-03-08T09:56:25;95650.25;;;7.94;96.07
4617;BME280;2321;42.704;23.384;2024-03-08T09:58:54;95656.38;;;8.03;96.99
4617;BME280;2321;42.704;23.384;2024-03-08T10:01:46;95641.06;;;8.13;95.88
4617;BME280;2321;42.704;23.384;2024-03-08T10:04:13;95650.47;;;8.33;93.86
4617;BME280;2321;42.704;23.384;2024-03-08T10:06:40;95643.59;;;8.55;93.93
4617;BME280;2321;42.704;23.384;2024-03-08T10:09:07;95648.41;;;8.52;90.49
4617;BME280;2321;42.704;23.384;2024-03-08T10:11:36;95645.44;;;8.46;90.72
4617;BME280;2321;42.704;23.384;2024-03-08T10:14:04;95648.75;;;8.48;92.17
4617;BME280;2321;42.704;23.384;2024-03-08T10:16:31;95652.19;;;8.57;91.50
4617;BME280;2321;42.704;23.384;2024-03-08T10:19:01;95652.38;;;8.64;88.78
4617;BME280;2321;42.704;23.384;2024-03-08T10:21:28;95651.34;;;8.65;85.66
4617;BME280;2321;42.704;23.384;2024-03-08T10:23:56;95650.91;;;8.62;86.65
4617;BME280;2321;42.704;23.384;2024-03-08T10:26:24;95651.88;;;8.60;89.34
4617;BME280;2321;42.704;23.384;2024-03-08T10:28:53;95637.56;;;8.70;87.80
4617;BME280;2321;42.704;23.384;2024-03-08T10:31:20;95632.97;;;8.87;88.68
4617;BME280;2321;42.704;23.384;2024-03-08T10:33:47;95636.72;;;9.01;86.78
4617;BME280;2321;42.704;23.384;2024-03-08T10:36:16;95628.41;;;9.04;84.00
4617;BME280;2321;42.704;23.384;2024-03-08T10:38:44;95639.47;;;9.08;83.18
4617;BME280;2321;42.704;23.384;2024-03-08T10:41:13;95637.84;;;9.07;86.42
4617;BME280;2321;42.704;23.384;2024-03-08T10:43:55;95630.47;;;8.94;81.69
4617;BME280;2321;42.704;23.384;2024-03-08T10:46:42;95637.66;;;8.85;83.06
4617;BME280;2321;42.704;23.384;2024-03-08T10:49:16;95629.41;;;8.80;85.09
4617;BME280;2321;42.704;23.384;2024-03-08T10:51:46;95627.78;;;8.70;85.34
4617;BME280;2321;42.704;23.384;2024-03-08T10:54:15;95622.50;;;8.62;85.52
4617;BME280;2321;42.704;23.384;2024-03-08T10:56:43;95633.59;;;8.66;86.15
4617;BME280;2321;42.704;23.384;2024-03-08T10:59:10;95622.28;;;8.72;83.05
4617;BME280;2321;42.704;23.384;2024-03-08T11:01:38;95619.63;;;8.72;83.53
4617;BME280;2321;42.704;23.384;2024-03-08T11:04:06;95615.94;;;8.81;83.12
4617;BME280;2321;42.704;23.384;2024-03-08T11:06:42;95621.19;;;8.90;82.06
4617;BME280;2321;42.704;23.384;2024-03-08T11:09:27;95617.31;;;9.01;80.88
4617;BME280;2321;42.704;23.384;2024-03-08T11:12:23;95602.25;;;9.17;83.08
4617;BME280;2321;42.704;23.384;2024-03-08T11:14:52;95601.47;;;9.31;82.38
4617;BME280;2321;42.704;23.384;2024-03-08T11:17:26;95588.47;;;9.36;77.59
4617;BME280;2321;42.704;23.384;2024-03-08T11:20:10;95610.59;;;9.52;76.00
4617;BME280;2321;42.704;23.384;2024-03-08T11:22:41;95604.34;;;9.60;76.07
4617;BME280;2321;42.704;23.384;2024-03-08T11:25:31;95602.88;;;9.57;76.58
4617;BME280;2321;42.704;23.384;2024-03-08T11:28:12;95599.31;;;9.50;77.91
4617;BME280;2321;42.704;23.384;2024-03-08T11:30:47;95601.69;;;9.60;73.70
4617;BME280;2321;42.704;23.384;2024-03-08T11:33:35;95591.97;;;9.52;73.17
4617;BME280;2321;42.704;23.384;2024-03-08T11:36:03;95595.69;;;9.28;70.35
4617;BME280;2321;42.704;23.384;2024-03-08T11:38:40;95587.94;;;9.18;76.25
4617;BME280;2321;42.704;23.384;2024-03-08T11:41:09;95587.66;;;9.12;79.51
4617;BME280;2321;42.704;23.384;2024-03-08T11:43:39;95586.72;;;9.29;78.23
4617;BME280;2321;42.704;23.384;2024-03-08T11:46:10;95581.78;;;9.41;78.66
4617;BME280;2321;42.704;23.384;2024-03-08T11:48:38;95583.38;;;9.50;77.26
4617;BME280;2321;42.704;23.384;2024-03-08T11:51:07;95577.97;;;9.74;80.81
4617;BME280;2321;42.704;23.384;2024-03-08T11:53:35;95585.50;;;10.00;72.73
4617;BME280;2321;42.704;23.384;2024-03-08T11:56:07;95583.13;;;10.06;68.71
4617;BME280;2321;42.704;23.384;2024-03-08T11:58:35;95581.00;;;10.01;65.25
4617;BME280;2321;42.704;23.384;2024-03-08T12:01:04;95577.72;;;10.14;71.41
4617;BME280;2321;42.704;23.384;2024-03-08T12:03:32;95582.38;;;10.27;65.61
4617;BME280;2321;42.704;23.384;2024-03-08T12:06:00;95584.47;;;10.32;62.43
4617;BME280;2321;42.704;23.384;2024-03-08T12:08:30;95587.34;;;10.30;61.11
4617;BME280;2321;42.704;23.384;2024-03-08T12:10:58;95582.09;;;10.22;61.31
4617;BME280;2321;42.704;23.384;2024-03-08T12:13:26;95582.31;;;10.05;62.18
4617;BME280;2321;42.704;23.384;2024-03-08T12:15:57;95583.03;;;9.84;63.11
4617;BME280;2321;42.704;23.384;2024-03-08T12:18:25;95595.22;;;9.78;64.68
4617;BME280;2321;42.704;23.384;2024-03-08T12:21:04;95584.13;;;9.74;63.72
4617;BME280;2321;42.704;23.384;2024-03-08T12:23:33;95582.56;;;9.65;66.42
4617;BME280;2321;42.704;23.384;2024-03-08T12:26:10;95576.16;;;9.59;71.22
4617;BME280;2321;42.704;23.384;2024-03-08T12:28:38;95579.28;;;9.63;69.42
4617;BME280;2321;42.704;23.384;2024-03-08T12:31:08;95579.31;;;9.54;68.52
4617;BME280;2321;42.704;23.384;2024-03-08T12:33:37;95573.00;;;9.55;68.79
4617;BME280;2321;42.704;23.384;2024-03-08T12:36:05;95582.28;;;9.59;65.00
4617;BME280;2321;42.704;23.384;2024-03-08T12:38:33;95576.88;;;9.68;64.70
4617;BME280;2321;42.704;23.384;2024-03-08T12:41:01;95578.97;;;9.73;63.62
4617;BME280;2321;42.704;23.384;2024-03-08T12:43:29;95555.25;;;9.71;64.40
4617;BME280;2321;42.704;23.384;2024-03-08T12:45:57;95570.75;;;9.83;64.71
4617;BME280;2321;42.704;23.384;2024-03-08T12:48:25;95575.13;;;9.75;64.80
4617;BME280;2321;42.704;23.384;2024-03-08T12:50:53;95562.66;;;9.76;63.47
4617;BME280;2321;42.704;23.384;2024-03-08T12:53:20;95566.00;;;9.78;60.73
4617;BME280;2321;42.704;23.384;2024-03-08T12:55:48;95561.84;;;9.75;61.42
4617;BME280;2321;42.704;23.384;2024-03-08T12:58:15;95557.44;;;9.83;61.10
4617;BME280;2321;42.704;23.384;2024-03-08T13:00:43;95551.50;;;9.80;59.69
4617;BME280;2321;42.704;23.384;2024-03-08T13:03:10;95555.63;;;9.68;59.42
4617;BME280;2321;42.704;23.384;2024-03-08T13:05:39;95550.19;;;9.61;59.98
4617;BME280;2321;42.704;23.384;2024-03-08T13:08:08;95560.66;;;9.63;62.38
4617;BME280;2321;42.704;23.384;2024-03-08T13:10:38;95563.94;;;9.65;60.40
4617;BME280;2321;42.704;23.384;2024-03-08T13:13:08;95553.13;;;9.66;59.83
4617;BME280;2321;42.704;23.384;2024-03-08T13:15:35;95556.59;;;9.67;60.23
4617;BME280;2321;42.704;23.384;2024-03-08T13:18:03;95559.63;;;9.64;60.92
4617;BME280;2321;42.704;23.384;2024-03-08T13:20:31;95560.72;;;9.69;64.47
4617;BME280;2321;42.704;23.384;2024-03-08T13:23:00;95560.38;;;9.73;60.28
4617;BME280;2321;42.704;23.384;2024-03-08T13:25:27;95557.06;;;9.70;60.40
4617;BME280;2321;42.704;23.384;2024-03-08T13:27:54;95558.75;;;9.72;60.40
4617;BME280;2321;42.704;23.384;2024-03-08T13:30:24;95561.41;;;9.72;61.23
4617;BME280;2321;42.704;23.384;2024-03-08T13:32:52;95536.44;;;9.73;62.85
4617;BME280;2321;42.704;23.384;2024-03-08T13:35:20;95542.84;;;9.78;62.64
4617;BME280;2321;42.704;23.384;2024-03-08T13:37:51;95554.63;;;9.84;62.93
4617;BME280;2321;42.704;23.384;2024-03-08T13:40:19;95554.88;;;9.89;62.35